Time;durP1;ratioP1;P1;durP2;ratioP2;P2;SDS_P1;SDS_P2;PMS_P1;PMS_P2;Temp;Humidity;BMP_temperature;BMP_pressure;BME280_temperature;BME280_humidity;BME280_pressure;Samples;Min_cycle;Max_cycle;Signal;HPM_P1;HPM_P2
2023/01/05 00:02:09;;;;;;;;;;;;;;;15.67;45.27;101781.42;102258;1328;60481;-83
2023/01/05 00:04:34;;;;;;;;;;;;;;;15.67;45.26;101789.42;102159;1326;60278;-83
2023/01/05 00:06:59;;;;;;;;;;;;;;;15.67;45.32;101780.02;102243;1330;60519;-84
2023/01/05 00:09:25;;;;;;;;;;;;;;;15.66;45.20;101774.71;102216;1332;60615;-84
2023/01/05 00:22:49;;;;;;;;;;;;;;;15.65;45.21;101775.27;102219;1314;60352;-84
2023/01/05 00:25:19;;;;;;;;;;;;;;;15.66;45.22;101772.06;102229;1317;60567;-84
2023/01/05 00:27:45;;;;;;;;;;;;;;;15.65;45.24;101767.10;102100;1326;73478;-83
2023/01/05 00:30:11;;;;;;;;;;;;;;;15.65;45.22;101762.33;102132;1330;60627;-84
2023/01/05 00:32:36;;;;;;;;;;;;;;;15.65;45.21;101763.05;102205;1317;60479;-83
2023/01/05 00:35:02;;;;;;;;;;;;;;;15.65;45.21;101758.45;102252;1320;60506;-84
2023/01/05 00:37:29;;;;;;;;;;;;;;;15.64;45.26;101754.55;102248;1321;60544;-84
2023/01/05 00:39:55;;;;;;;;;;;;;;;15.65;45.25;101754.73;102111;1320;60543;-83
2023/01/05 00:42:20;;;;;;;;;;;;;;;15.64;45.17;101752.78;102150;1331;60685;-83
2023/01/05 00:44:45;;;;;;;;;;;;;;;15.65;45.19;101749.22;102146;1318;60555;-84
2023/01/05 00:47:11;;;;;;;;;;;;;;;15.64;45.26;101743.91;102162;1329;61054;-84
2023/01/05 00:49:36;;;;;;;;;;;;;;;15.64;45.18;101740.72;102123;1313;60514;-83
2023/01/05 00:52:02;;;;;;;;;;;;;;;15.63;45.17;101736.64;102123;1334;60489;-84
2023/01/05 00:54:27;;;;;;;;;;;;;;;15.64;45.21;101737.34;102239;1326;60477;-84
2023/01/05 00:56:53;;;;;;;;;;;;;;;15.63;45.17;101731.67;102167;1318;60509;-84
2023/01/05 00:59:18;;;;;;;;;;;;;;;15.64;45.19;101732.04;102259;1326;60911;-84
2023/01/05 01:01:45;;;;;;;;;;;;;;;15.64;45.12;101731.50;102138;1313;60521;-83
2023/01/05 01:04:10;;;;;;;;;;;;;;;15.63;45.23;101724.41;102157;1333;60444;-84
2023/01/05 01:06:36;;;;;;;;;;;;;;;15.63;45.15;101718.02;102237;1326;60652;-83
2023/01/05 01:09:01;;;;;;;;;;;;;;;15.63;45.11;101707.38;102136;1326;60525;-84
2023/01/05 01:11:26;;;;;;;;;;;;;;;15.63;45.23;101701.89;102290;1321;60434;-84
2023/01/05 01:13:53;;;;;;;;;;;;;;;15.63;45.11;101696.92;102228;1327;60594;-84
2023/01/05 01:16:19;;;;;;;;;;;;;;;15.62;45.17;101694.27;102237;1318;59410;-84
2023/01/05 01:18:44;;;;;;;;;;;;;;;15.63;45.15;101688.94;102110;1321;60470;-84
2023/01/05 01:21:09;;;;;;;;;;;;;;;15.62;45.14;101682.39;102103;1329;60483;-84
2023/01/05 01:23:38;;;;;;;;;;;;;;;15.62;45.18;101678.69;102225;1326;60520;-83
2023/01/05 01:26:04;;;;;;;;;;;;;;;15.62;45.08;101680.10;102199;1318;60454;-84
2023/01/05 01:28:29;;;;;;;;;;;;;;;15.62;45.08;101671.05;102105;1317;60513;-83
2023/01/05 01:30:55;;;;;;;;;;;;;;;15.62;45.13;101666.61;102134;1334;59283;-83
2023/01/05 01:33:21;;;;;;;;;;;;;;;15.61;45.07;101659.19;102207;1319;59339;-84
2023/01/05 01:35:46;;;;;;;;;;;;;;;15.61;45.09;101655.80;102149;1321;60137;-84
2023/01/05 01:38:11;;;;;;;;;;;;;;;15.61;45.10;101646.80;102222;1318;61301;-84
2023/01/05 01:40:38;;;;;;;;;;;;;;;15.61;45.08;101645.89;102227;1321;60145;-84
2023/01/05 01:43:07;;;;;;;;;;;;;;;15.61;45.02;101644.10;102121;1321;61368;-84
2023/01/05 01:45:33;;;;;;;;;;;;;;;15.61;45.06;101639.33;102220;1318;73555;-84
2023/01/05 01:47:58;;;;;;;;;;;;;;;15.60;45.06;101632.42;102080;1333;60088;-84
2023/01/05 01:50:30;;;;;;;;;;;;;;;15.60;45.06;101629.75;102152;1313;61264;-84
2023/01/05 01:53:01;;;;;;;;;;;;;;;15.60;45.11;101619.83;102121;1318;61316;-83
2023/01/05 01:55:26;;;;;;;;;;;;;;;15.60;45.07;101615.03;102113;1334;72537;-84
2023/01/05 01:57:52;;;;;;;;;;;;;;;15.60;45.07;101611.13;102216;1321;61310;-83
2023/01/05 02:00:17;;;;;;;;;;;;;;;15.59;45.03;101602.80;102115;1334;61385;-84
2023/01/05 02:02:44;;;;;;;;;;;;;;;15.58;45.03;101597.52;102222;1326;61277;-84
2023/01/05 02:05:10;;;;;;;;;;;;;;;15.58;45.05;101597.68;102212;1326;61665;-84
2023/01/05 02:07:36;;;;;;;;;;;;;;;15.59;45.04;101598.39;102137;1333;61442;-84
2023/01/05 02:10:02;;;;;;;;;;;;;;;15.58;45.06;101598.76;102245;1327;61209;-84
2023/01/05 02:12:31;;;;;;;;;;;;;;;15.58;45.05;101586.88;102178;1317;61382;-83
2023/01/05 02:14:59;;;;;;;;;;;;;;;15.58;44.97;101579.25;102214;1330;61299;-84
2023/01/05 02:17:37;;;;;;;;;;;;;;;15.58;45.02;101579.08;102238;1318;73603;-84
2023/01/05 02:20:24;;;;;;;;;;;;;;;15.58;45.00;101577.67;102121;1332;75722;-84
2023/01/05 02:23:09;;;;;;;;;;;;;;;15.58;45.02;101575.72;102257;1326;60999;-83
2023/01/05 02:25:40;;;;;;;;;;;;;;;15.58;45.03;101566.11;102246;1318;61161;-83
2023/01/05 02:28:05;;;;;;;;;;;;;;;15.57;44.96;101557.11;102211;1333;73805;-84
2023/01/05 02:30:49;;;;;;;;;;;;;;;15.57;44.98;101552.50;102179;1330;60195;-83
2023/01/05 02:33:26;;;;;;;;;;;;;;;15.57;45.04;101552.15;102224;1317;61105;-83
2023/01/05 02:36:07;;;;;;;;;;;;;;;15.56;44.96;101551.27;102195;1331;61126;-83
2023/01/05 02:38:36;;;;;;;;;;;;;;;15.57;45.03;101547.55;102260;1326;72448;-83
2023/01/05 02:41:12;;;;;;;;;;;;;;;15.57;44.95;101544.34;102176;1321;75422;-84
2023/01/05 02:43:37;;;;;;;;;;;;;;;15.56;44.96;101536.36;102236;1326;61465;-84
2023/01/05 02:46:03;;;;;;;;;;;;;;;15.56;45.01;101524.30;102169;1334;61299;-84
2023/01/05 02:48:28;;;;;;;;;;;;;;;15.56;45.06;101511.55;102263;1318;61348;-83
2023/01/05 02:51:01;;;;;;;;;;;;;;;15.56;44.98;101505.69;102109;1329;61325;-84
2023/01/05 02:53:30;;;;;;;;;;;;;;;15.56;45.01;101505.52;102057;1317;61157;-83
2023/01/05 02:56:05;;;;;;;;;;;;;;;15.56;44.88;101504.11;102255;1318;61203;-83
2023/01/05 02:58:36;;;;;;;;;;;;;;;15.56;44.98;101504.98;102225;1326;71922;-83
2023/01/05 03:01:34;;;;;;;;;;;;;;;15.55;44.97;101504.83;102141;1326;75534;-83
2023/01/05 03:04:00;;;;;;;;;;;;;;;15.56;44.94;101504.82;101991;1324;61219;-84
2023/01/05 03:06:37;;;;;;;;;;;;;;;15.55;44.97;101499.86;101901;1327;61224;-84
2023/01/05 03:09:03;;;;;;;;;;;;;;;15.56;44.88;101499.12;101902;1337;73579;-84
2023/01/05 03:14:46;;;;;;;;;;;;;;;15.55;44.97;101487.64;101966;1329;60098;-84
2023/01/05 03:17:12;;;;;;;;;;;;;;;15.55;44.89;101487.27;101872;1335;61228;-84
2023/01/05 03:19:41;;;;;;;;;;;;;;;15.54;44.96;101487.84;101963;1324;61329;-84
2023/01/05 03:36:02;;;;;;;;;;;;;;;15.54;44.89;101484.50;102001;1323;61388;-84
2023/01/05 03:38:33;;;;;;;;;;;;;;;15.54;44.85;101485.56;101928;1332;60153;-83
2023/01/05 03:41:00;;;;;;;;;;;;;;;15.53;44.87;101490.72;102220;1316;72403;-83
2023/01/05 03:43:25;;;;;;;;;;;;;;;15.53;44.92;101490.73;102224;1316;61267;-84
2023/01/05 03:45:54;;;;;;;;;;;;;;;15.53;44.86;101485.93;102130;1331;61391;-83
2023/01/05 03:48:20;;;;;;;;;;;;;;;15.53;44.90;101487.89;102129;1336;61237;-83
2023/01/05 03:50:45;;;;;;;;;;;;;;;15.53;44.78;101487.54;102167;1321;61316;-83
2023/01/05 03:53:11;;;;;;;;;;;;;;;15.53;44.86;101497.66;102117;1326;62051;-83
2023/01/05 03:56:00;;;;;;;;;;;;;;;15.53;44.85;101498.90;102084;1334;61321;-84
2023/01/05 03:58:25;;;;;;;;;;;;;;;15.53;44.88;101500.48;101886;1340;61350;-84
2023/01/05 04:00:50;;;;;;;;;;;;;;;15.53;44.80;101500.85;101872;1330;61447;-83
2023/01/05 04:03:16;;;;;;;;;;;;;;;15.53;44.82;101499.25;101879;1343;61345;-84
2023/01/05 04:05:41;;;;;;;;;;;;;;;15.52;44.89;101490.39;101902;1324;61431;-84
2023/01/05 04:08:07;;;;;;;;;;;;;;;15.52;44.84;101485.61;101897;1327;61256;-84
2023/01/05 04:10:32;;;;;;;;;;;;;;;15.52;44.79;101492.54;101891;1339;61430;-83
2023/01/05 04:12:57;;;;;;;;;;;;;;;15.52;44.75;101492.55;101875;1335;62064;-84
2023/01/05 04:15:23;;;;;;;;;;;;;;;15.51;44.82;101490.26;101907;1319;61276;-84
2023/01/05 04:17:48;;;;;;;;;;;;;;;15.52;44.81;101492.55;101902;1336;61356;-84
2023/01/05 04:20:14;;;;;;;;;;;;;;;15.51;44.86;101484.42;101884;1326;60067;-84
2023/01/05 04:22:39;;;;;;;;;;;;;;;15.51;44.85;101478.92;101892;1329;61414;-84
2023/01/05 04:25:05;;;;;;;;;;;;;;;15.50;44.84;101479.84;101829;1340;61443;-84
2023/01/05 04:27:30;;;;;;;;;;;;;;;15.51;44.85;101477.87;101890;1324;61449;-83
2023/01/05 04:29:56;;;;;;;;;;;;;;;15.50;44.83;101479.13;101916;1326;61312;-84
2023/01/05 04:32:21;;;;;;;;;;;;;;;15.50;44.81;101474.69;101865;1341;61273;-83
2023/01/05 04:34:46;;;;;;;;;;;;;;;15.49;44.81;101473.83;101887;1333;61555;-84
2023/01/05 04:37:12;;;;;;;;;;;;;;;15.49;44.80;101468.50;102112;1313;61408;-83
2023/01/05 04:39:37;;;;;;;;;;;;;;;15.49;44.78;101456.11;102118;1333;61336;-84
2023/01/05 04:42:03;;;;;;;;;;;;;;;15.49;44.80;101453.45;102158;1329;61542;-84
2023/01/05 04:44:28;;;;;;;;;;;;;;;15.49;44.78;101450.98;102220;1333;61436;-84
2023/01/05 04:46:53;;;;;;;;;;;;;;;15.49;44.77;101446.73;102130;1329;61314;-84
2023/01/05 04:49:19;;;;;;;;;;;;;;;15.48;44.73;101447.09;102322;1326;61314;-83
2023/01/05 04:51:46;;;;;;;;;;;;;;;15.48;44.71;101442.13;102161;1329;61269;-83
2023/01/05 04:54:12;;;;;;;;;;;;;;;15.48;44.71;101440.36;102121;1335;74706;-84
2023/01/05 04:56:37;;;;;;;;;;;;;;;15.48;44.73;101438.38;102193;1332;61311;-84
2023/01/05 04:59:03;;;;;;;;;;;;;;;15.48;44.69;101429.91;102197;1327;61376;-83
2023/01/05 05:01:28;;;;;;;;;;;;;;;15.47;44.70;101423.36;102216;1316;61311;-83
2023/01/05 05:03:54;;;;;;;;;;;;;;;15.48;44.68;101420.69;102125;1329;61465;-83
2023/01/05 05:06:19;;;;;;;;;;;;;;;15.48;44.67;101418.91;102192;1333;61359;-83
2023/01/05 05:08:45;;;;;;;;;;;;;;;15.47;44.72;101416.62;102151;1329;61313;-83
2023/01/05 05:11:10;;;;;;;;;;;;;;;15.47;44.66;101409.89;102244;1334;61327;-84
2023/01/05 05:13:35;;;;;;;;;;;;;;;15.46;44.67;101401.39;102230;1318;61436;-84
2023/01/05 05:16:01;;;;;;;;;;;;;;;15.47;44.65;101396.59;102146;1329;61413;-84
2023/01/05 05:18:26;;;;;;;;;;;;;;;15.46;44.63;101392.71;102225;1332;61293;-84
2023/01/05 05:20:52;;;;;;;;;;;;;;;15.46;44.66;101386.67;102147;1321;61259;-83
2023/01/05 05:23:17;;;;;;;;;;;;;;;15.46;44.61;101382.07;102208;1330;60102;-84
2023/01/05 05:25:43;;;;;;;;;;;;;;;15.46;44.62;101378.87;102186;1326;61447;-83
2023/01/05 05:28:09;;;;;;;;;;;;;;;15.47;44.66;101379.02;102180;1322;60118;-84
2023/01/05 05:30:36;;;;;;;;;;;;;;;15.48;44.65;101376.84;102242;1327;75532;-84
2023/01/05 05:33:02;;;;;;;;;;;;;;;15.51;44.68;101378.67;102148;1329;61188;-84
2023/01/05 05:35:27;;;;;;;;;;;;;;;15.56;44.59;101376.00;102245;1321;61328;-83
2023/01/05 05:37:52;;;;;;;;;;;;;;;15.63;44.63;101377.86;102102;1320;61373;-83
2023/01/05 05:40:18;;;;;;;;;;;;;;;15.71;44.52;101383.41;102082;1334;59463;-84
2023/01/05 05:42:43;;;;;;;;;;;;;;;15.80;44.42;101379.52;102152;1319;60068;-84
2023/01/05 05:45:09;;;;;;;;;;;;;;;15.89;44.39;101380.26;102227;1334;61302;-83
2023/01/05 05:47:34;;;;;;;;;;;;;;;15.99;44.29;101370.46;102196;1318;61313;-84
2023/01/05 05:50:00;;;;;;;;;;;;;;;16.07;44.17;101366.38;102131;1329;61322;-84
2023/01/05 05:52:25;;;;;;;;;;;;;;;16.15;44.02;101360.36;102177;1318;61372;-84
2023/01/05 05:54:51;;;;;;;;;;;;;;;16.24;44.05;101344.39;102234;1317;61338;-84
2023/01/05 05:57:16;;;;;;;;;;;;;;;16.32;43.86;101347.77;102260;1331;61491;-84
2023/01/05 05:59:42;;;;;;;;;;;;;;;16.38;43.82;101345.90;102112;1333;61328;-84
2023/01/05 06:02:07;;;;;;;;;;;;;;;16.45;43.78;101341.17;102159;1321;61506;-83
2023/01/05 06:04:32;;;;;;;;;;;;;;;16.51;43.73;101330.45;102142;1321;61485;-84
2023/01/05 06:06:58;;;;;;;;;;;;;;;16.56;43.67;101318.46;102239;1318;75509;-84
2023/01/05 06:09:23;;;;;;;;;;;;;;;16.63;43.57;101315.35;102217;1318;61387;-84
2023/01/05 06:11:49;;;;;;;;;;;;;;;16.67;43.52;101310.89;102199;1332;61372;-84
2023/01/05 06:14:14;;;;;;;;;;;;;;;16.72;43.36;101313.17;102115;1333;61357;-84
2023/01/05 06:16:40;;;;;;;;;;;;;;;16.76;43.43;101311.02;102170;1320;61401;-84
2023/01/05 06:19:06;;;;;;;;;;;;;;;16.80;43.34;101318.85;102257;1318;61422;-83
2023/01/05 06:21:31;;;;;;;;;;;;;;;16.84;43.34;101324.36;102217;1321;61275;-83
2023/01/05 06:23:57;;;;;;;;;;;;;;;16.88;43.27;101324.89;102222;1319;61379;-84
2023/01/05 06:26:22;;;;;;;;;;;;;;;16.92;43.19;101321.20;102126;1329;61318;-84
2023/01/05 06:28:48;;;;;;;;;;;;;;;16.95;43.18;101312.72;102234;1333;61413;-84
2023/01/05 06:31:16;;;;;;;;;;;;;;;16.97;43.06;101310.83;102157;1320;62134;-83
2023/01/05 06:33:42;;;;;;;;;;;;;;;17.00;43.17;101306.08;102220;1317;61318;-84
2023/01/05 06:36:07;;;;;;;;;;;;;;;17.01;43.16;101306.58;102225;1317;61325;-84
2023/01/05 06:38:32;;;;;;;;;;;;;;;17.01;43.14;101304.24;102102;1327;61167;-84
2023/01/05 06:40:58;;;;;;;;;;;;;;;17.01;43.13;101297.15;102206;1333;61300;-84
2023/01/05 06:43:24;;;;;;;;;;;;;;;17.02;43.02;101290.71;102168;1327;61299;-84
2023/01/05 06:45:49;;;;;;;;;;;;;;;17.01;43.10;101295.91;102198;1324;61163;-84
2023/01/05 06:48:15;;;;;;;;;;;;;;;17.00;43.15;101291.48;102188;1334;61315;-84
2023/01/05 06:50:41;;;;;;;;;;;;;;;17.00;43.08;101287.77;102221;1328;61229;-84
2023/01/05 06:53:07;;;;;;;;;;;;;;;16.99;43.14;101274.30;102150;1320;61378;-83
2023/01/05 06:55:33;;;;;;;;;;;;;;;16.99;43.10;101266.69;102303;1316;61378;-84
2023/01/05 06:57:58;;;;;;;;;;;;;;;16.98;43.20;101262.10;102211;1335;61334;-84
2023/01/05 07:00:24;;;;;;;;;;;;;;;16.97;43.15;101262.85;102291;1327;61425;-84
2023/01/05 07:02:49;;;;;;;;;;;;;;;16.96;43.23;101260.20;102124;1332;61297;-84
2023/01/05 07:05:15;;;;;;;;;;;;;;;16.97;43.13;101259.46;102201;1324;59934;-84
2023/01/05 07:07:41;;;;;;;;;;;;;;;16.96;43.09;101257.36;102147;1319;61282;-84
2023/01/05 07:10:06;;;;;;;;;;;;;;;16.96;43.13;101260.73;102217;1333;60132;-83
2023/01/05 07:12:32;;;;;;;;;;;;;;;16.96;43.18;101261.64;102273;1334;61426;-84
2023/01/05 07:14:57;;;;;;;;;;;;;;;16.96;43.17;101264.48;102212;1326;60184;-83
2023/01/05 07:17:23;;;;;;;;;;;;;;;16.96;43.22;101269.11;102229;1332;61398;-85
2023/01/05 07:19:48;;;;;;;;;;;;;;;16.95;43.17;101262.55;102189;1332;62472;-84
2023/01/05 07:22:14;;;;;;;;;;;;;;;16.95;43.15;101253.86;102228;1324;61375;-84
2023/01/05 07:24:39;;;;;;;;;;;;;;;16.95;43.23;101246.23;102255;1332;61312;-84
2023/01/05 07:27:05;;;;;;;;;;;;;;;16.95;43.21;101238.94;102188;1327;73493;-84
2023/01/05 07:29:30;;;;;;;;;;;;;;;16.95;43.21;101236.80;102138;1321;61312;-84
2023/01/05 07:31:56;;;;;;;;;;;;;;;16.95;43.29;101238.77;102167;1326;61421;-84
2023/01/05 07:34:21;;;;;;;;;;;;;;;16.95;43.22;101233.23;102255;1318;61395;-84
2023/01/05 07:36:47;;;;;;;;;;;;;;;16.95;43.23;101235.02;102179;1319;60109;-83
2023/01/05 07:39:12;;;;;;;;;;;;;;;16.95;43.24;101232.87;102014;1338;71138;-84
2023/01/05 07:41:38;;;;;;;;;;;;;;;16.95;43.19;101227.00;102239;1334;61305;-84
2023/01/05 07:44:03;;;;;;;;;;;;;;;16.95;43.17;101218.98;102121;1332;61375;-84
2023/01/05 07:46:30;;;;;;;;;;;;;;;16.96;43.32;101214.70;102297;1328;61352;-84
2023/01/05 07:48:55;;;;;;;;;;;;;;;16.96;43.34;101207.77;102209;1319;60308;-85
2023/01/05 07:51:21;;;;;;;;;;;;;;;16.95;43.20;101208.32;102243;1332;60115;-84
2023/01/05 07:53:46;;;;;;;;;;;;;;;16.96;43.15;101210.45;102227;1318;75455;-83
2023/01/05 07:56:12;;;;;;;;;;;;;;;16.96;43.18;101215.04;102201;1321;61366;-84
2023/01/05 07:58:39;;;;;;;;;;;;;;;16.96;43.23;101222.49;102156;1328;61754;-83
2023/01/05 08:01:06;;;;;;;;;;;;;;;16.96;43.20;101219.84;102113;1335;61340;-84
2023/01/05 08:03:31;;;;;;;;;;;;;;;16.97;43.26;101225.15;102128;1331;60673;-84
2023/01/05 08:05:57;;;;;;;;;;;;;;;16.98;43.24;101228.86;102216;1327;61308;-85
2023/01/05 08:08:23;;;;;;;;;;;;;;;16.98;43.24;101229.56;102135;1331;61328;-84
2023/01/05 08:10:49;;;;;;;;;;;;;;;16.98;43.23;101224.91;102129;1334;61338;-84
2023/01/05 08:15:59;;;;;;;;;;;;;;;16.98;43.25;101219.38;102230;1333;74662;-84
2023/01/05 08:18:25;;;;;;;;;;;;;;;16.99;43.27;101213.31;101738;1318;746770;-84
2023/01/05 08:20:52;;;;;;;;;;;;;;;16.99;43.19;101215.59;102182;1327;61366;-84
2023/01/05 08:23:17;;;;;;;;;;;;;;;16.99;43.34;101210.11;102270;1328;61278;-84
2023/01/05 08:25:43;;;;;;;;;;;;;;;16.99;43.28;101215.77;102126;1318;61229;-84
2023/01/05 08:28:10;;;;;;;;;;;;;;;17.00;43.20;101216.99;102204;1326;62030;-84
2023/01/05 08:30:36;;;;;;;;;;;;;;;17.00;43.24;101206.67;102232;1318;61360;-84
2023/01/05 08:33:04;;;;;;;;;;;;;;;17.00;43.23;101200.27;102195;1316;61311;-83
2023/01/05 08:35:30;;;;;;;;;;;;;;;17.01;43.27;101195.09;102096;1326;61296;-84
2023/01/05 08:37:55;;;;;;;;;;;;;;;17.01;43.32;101193.64;102273;1316;59251;-83
2023/01/05 08:40:21;;;;;;;;;;;;;;;17.01;43.20;101187.05;102199;1328;61313;-83
2023/01/05 08:42:47;;;;;;;;;;;;;;;17.02;43.23;101179.55;102306;1321;61405;-84
2023/01/05 08:45:15;;;;;;;;;;;;;;;17.03;43.18;101175.07;102160;1324;61269;-84
2023/01/05 08:47:42;;;;;;;;;;;;;;;17.03;43.16;101169.18;102319;1317;75430;-83
2023/01/05 08:50:08;;;;;;;;;;;;;;;17.04;43.25;101166.86;102214;1321;61296;-83
2023/01/05 08:52:34;;;;;;;;;;;;;;;17.04;43.16;101157.25;102221;1335;61318;-83
2023/01/05 08:55:00;;;;;;;;;;;;;;;17.04;43.20;101151.71;102340;1321;60305;-83
2023/01/05 08:57:26;;;;;;;;;;;;;;;17.04;43.25;101150.45;102147;1328;61035;-83
2023/01/05 08:59:51;;;;;;;;;;;;;;;17.05;43.25;101142.39;102233;1330;61395;-84
2023/01/05 09:02:18;;;;;;;;;;;;;;;17.06;43.30;101140.41;102186;1310;61402;-84
2023/01/05 09:04:43;;;;;;;;;;;;;;;17.06;43.23;101137.38;102249;1321;60009;-84
2023/01/05 09:07:09;;;;;;;;;;;;;;;17.07;43.14;101140.02;102230;1335;61279;-84
2023/01/05 09:09:34;;;;;;;;;;;;;;;17.07;43.12;101136.45;102248;1328;61377;-84
2023/01/05 09:11:59;;;;;;;;;;;;;;;17.08;43.23;101132.16;102190;1332;61367;-84
2023/01/05 09:14:25;;;;;;;;;;;;;;;17.08;43.10;101121.84;102120;1333;61324;-84
2023/01/05 09:16:50;;;;;;;;;;;;;;;17.08;43.07;101114.16;102210;1334;61343;-84
2023/01/05 09:19:16;;;;;;;;;;;;;;;17.08;43.16;101105.42;102290;1332;61278;-84
2023/01/05 09:21:41;;;;;;;;;;;;;;;17.08;43.06;101097.96;102226;1332;61324;-84
2023/01/05 09:24:07;;;;;;;;;;;;;;;17.09;43.08;101085.48;102163;1337;61269;-84
2023/01/05 09:26:32;;;;;;;;;;;;;;;17.09;43.22;101083.18;102158;1334;61392;-84
2023/01/05 09:28:58;;;;;;;;;;;;;;;17.09;43.12;101080.67;102126;1333;61330;-84
2023/01/05 09:31:23;;;;;;;;;;;;;;;17.09;43.19;101078.35;102152;1333;61379;-84
2023/01/05 09:33:49;;;;;;;;;;;;;;;17.11;43.16;101068.36;102118;1334;74431;-84
2023/01/05 09:36:15;;;;;;;;;;;;;;;17.10;43.17;101056.46;102231;1330;61426;-84
2023/01/05 09:38:40;;;;;;;;;;;;;;;17.11;43.15;101049.30;102239;1326;61424;-83
2023/01/05 09:41:12;;;;;;;;;;;;;;;17.12;43.09;101050.52;102146;1327;61321;-83
2023/01/05 09:43:39;;;;;;;;;;;;;;;17.11;43.02;101043.27;102205;1325;74306;-83
2023/01/05 09:46:06;;;;;;;;;;;;;;;17.12;43.09;101037.86;102271;1331;61381;-83
2023/01/05 09:48:34;;;;;;;;;;;;;;;17.12;43.08;101035.73;102105;1329;61340;-83
2023/01/05 09:50:59;;;;;;;;;;;;;;;17.12;43.04;101030.75;102192;1328;72915;-83
2023/01/05 09:53:27;;;;;;;;;;;;;;;17.12;42.98;101030.23;102229;1333;61311;-84
2023/01/05 09:55:52;;;;;;;;;;;;;;;17.12;43.04;101019.00;102148;1334;61273;-84
2023/01/05 09:58:19;;;;;;;;;;;;;;;17.13;43.06;101008.14;102138;1334;61315;-84
2023/01/05 10:00:47;;;;;;;;;;;;;;;17.13;42.94;100982.85;102215;1332;61334;-85
2023/01/05 10:03:14;;;;;;;;;;;;;;;17.13;43.10;100977.16;102087;1330;74541;-84
2023/01/05 10:05:40;;;;;;;;;;;;;;;17.13;43.03;100968.63;102060;1337;61389;-84
2023/01/05 10:08:06;;;;;;;;;;;;;;;17.14;43.02;100963.59;102123;1329;59347;-84
2023/01/05 10:10:35;;;;;;;;;;;;;;;17.14;43.01;100961.80;102223;1326;60037;-84
2023/01/05 10:13:05;;;;;;;;;;;;;;;17.15;43.10;100955.76;102222;1332;75654;-84
2023/01/05 10:15:41;;;;;;;;;;;;;;;17.16;43.14;100956.23;102147;1326;61101;-83
2023/01/05 10:18:26;;;;;;;;;;;;;;;17.15;42.99;100948.25;102224;1333;61279;-84
2023/01/05 10:20:51;;;;;;;;;;;;;;;17.16;43.01;100952.65;102189;1332;72575;-83
2023/01/05 10:23:16;;;;;;;;;;;;;;;17.16;43.07;100948.90;102222;1326;61398;-84
2023/01/05 10:26:05;;;;;;;;;;;;;;;17.17;43.00;100944.43;102221;1332;61262;-84
2023/01/05 10:28:43;;;;;;;;;;;;;;;17.17;42.92;100936.77;102153;1326;60330;-84
2023/01/05 10:31:24;;;;;;;;;;;;;;;17.18;43.05;100928.73;102204;1332;72421;-84
2023/01/05 10:33:55;;;;;;;;;;;;;;;17.18;43.04;100919.83;102095;1330;73719;-84
2023/01/05 10:36:24;;;;;;;;;;;;;;;17.19;43.05;100919.77;102235;1332;61211;-84
2023/01/05 10:38:56;;;;;;;;;;;;;;;17.19;43.08;100924.92;102246;1328;61110;-83
2023/01/05 10:41:42;;;;;;;;;;;;;;;17.20;43.09;100922.73;102233;1326;72450;-84
2023/01/05 10:44:20;;;;;;;;;;;;;;;17.21;43.05;100910.95;102196;1330;74603;-84
2023/01/05 10:46:46;;;;;;;;;;;;;;;17.21;42.95;100902.92;102204;1326;61690;-84
2023/01/05 10:49:15;;;;;;;;;;;;;;;17.22;43.00;100898.08;102199;1331;61332;-83
2023/01/05 10:51:40;;;;;;;;;;;;;;;17.22;43.01;100894.89;102244;1328;73687;-84
2023/01/05 10:54:06;;;;;;;;;;;;;;;17.22;43.02;100904.45;102208;1333;62960;-84
2023/01/05 10:56:31;;;;;;;;;;;;;;;17.22;42.91;100914.23;102238;1327;61327;-84
2023/01/05 10:59:10;;;;;;;;;;;;;;;17.22;42.96;100919.40;102216;1334;59291;-83
2023/01/05 11:01:36;;;;;;;;;;;;;;;17.23;42.95;100921.15;102048;1334;71322;-83
2023/01/05 11:04:04;;;;;;;;;;;;;;;17.23;42.94;100928.60;102109;1329;61349;-83
2023/01/05 11:06:32;;;;;;;;;;;;;;;17.24;43.03;100935.88;102216;1326;60793;-84
2023/01/05 11:09:16;;;;;;;;;;;;;;;17.24;43.00;100929.96;102090;1329;61210;-83
2023/01/05 11:11:42;;;;;;;;;;;;;;;17.24;42.89;100930.32;102228;1333;73484;-84
2023/01/05 11:14:13;;;;;;;;;;;;;;;17.25;43.01;100934.23;102124;1334;61250;-84
2023/01/05 11:16:40;;;;;;;;;;;;;;;17.26;43.00;100930.06;102130;1334;61311;-83
2023/01/05 11:19:06;;;;;;;;;;;;;;;17.25;42.96;100915.86;102114;1329;61661;-84
2023/01/05 11:21:35;;;;;;;;;;;;;;;17.26;42.91;100901.04;102131;1329;71728;-83
2023/01/05 11:24:01;;;;;;;;;;;;;;;17.27;42.91;100887.87;102163;1319;75370;-83
2023/01/05 11:26:33;;;;;;;;;;;;;;;17.27;42.94;100878.80;102126;1329;61312;-84
2023/01/05 11:29:02;;;;;;;;;;;;;;;17.28;42.96;100879.11;102129;1334;61262;-84
2023/01/05 11:31:46;;;;;;;;;;;;;;;17.28;42.90;100886.59;102188;1334;73647;-84
2023/01/05 11:34:14;;;;;;;;;;;;;;;17.28;42.97;100862.01;102199;1326;75476;-83
2023/01/05 11:36:39;;;;;;;;;;;;;;;17.29;43.03;100842.05;102208;1332;61251;-83
2023/01/05 11:39:05;;;;;;;;;;;;;;;17.29;43.04;100832.79;102094;1329;61484;-83
2023/01/05 11:41:30;;;;;;;;;;;;;;;17.30;42.87;100819.42;102155;1327;61155;-84
2023/01/05 11:43:59;;;;;;;;;;;;;;;17.30;42.93;100813.20;102182;1326;61270;-83
2023/01/05 11:46:25;;;;;;;;;;;;;;;17.30;42.94;100801.27;102135;1329;61877;-83
2023/01/05 11:48:54;;;;;;;;;;;;;;;17.30;42.98;100791.63;102105;1334;61395;-83
2023/01/05 11:51:33;;;;;;;;;;;;;;;17.31;42.95;100781.06;102191;1320;73952;-83
2023/01/05 11:53:59;;;;;;;;;;;;;;;17.32;42.91;100788.89;102208;1326;75742;-83
2023/01/05 11:56:24;;;;;;;;;;;;;;;17.32;42.91;100797.77;102137;1327;59421;-83
2023/01/05 11:58:50;;;;;;;;;;;;;;;17.32;42.97;100806.63;102208;1327;61277;-84
2023/01/05 12:01:35;;;;;;;;;;;;;;;17.33;42.94;100830.79;102176;1331;61229;-83
2023/01/05 12:04:07;;;;;;;;;;;;;;;17.33;42.97;100837.70;102396;1326;76236;-83
2023/01/05 12:06:37;;;;;;;;;;;;;;;17.34;43.00;100834.67;102449;1326;61093;-83
2023/01/05 12:09:08;;;;;;;;;;;;;;;17.34;42.90;100829.66;102085;1333;60224;-83
2023/01/05 12:11:50;;;;;;;;;;;;;;;17.34;43.00;100813.99;102203;1320;72608;-83
2023/01/05 12:14:35;;;;;;;;;;;;;;;17.35;43.01;100796.71;102104;1334;75917;-83
2023/01/05 12:17:02;;;;;;;;;;;;;;;17.35;43.05;100788.66;102218;1326;61279;-83
2023/01/05 12:19:47;;;;;;;;;;;;;;;17.36;43.04;100782.23;102116;1334;61308;-83
2023/01/05 12:22:12;;;;;;;;;;;;;;;17.36;42.92;100767.30;102196;1326;72410;-83
2023/01/05 12:24:41;;;;;;;;;;;;;;;17.37;42.98;100772.06;102216;1330;61535;-83
2023/01/05 12:27:15;;;;;;;;;;;;;;;17.37;42.96;100770.79;102247;1333;61146;-83
2023/01/05 12:29:50;;;;;;;;;;;;;;;17.37;42.80;100760.30;102244;1327;61302;-83
2023/01/05 12:32:15;;;;;;;;;;;;;;;17.37;42.93;100755.14;102327;1327;73615;-83
2023/01/05 12:34:50;;;;;;;;;;;;;;;17.38;42.97;100753.66;102231;1329;60076;-83
2023/01/05 12:37:27;;;;;;;;;;;;;;;17.39;42.88;100743.14;102263;1313;61062;-83
2023/01/05 12:40:05;;;;;;;;;;;;;;;17.39;42.93;100743.97;102272;1334;61201;-83
2023/01/05 12:42:37;;;;;;;;;;;;;;;17.40;42.92;100754.98;102250;1330;73349;-83
2023/01/05 12:45:19;;;;;;;;;;;;;;;17.40;42.98;100744.10;102235;1327;74706;-83
2023/01/05 12:47:50;;;;;;;;;;;;;;;17.41;42.98;100733.38;102221;1326;61276;-83
2023/01/05 12:50:19;;;;;;;;;;;;;;;17.42;42.88;100731.21;102377;1330;61004;-84
2023/01/05 12:52:45;;;;;;;;;;;;;;;17.42;42.92;100730.64;102319;1327;71588;-83
2023/01/05 12:55:21;;;;;;;;;;;;;;;17.42;42.88;100725.83;102269;1334;61581;-83
2023/01/05 12:57:48;;;;;;;;;;;;;;;17.43;42.96;100724.39;102209;1333;61200;-84
2023/01/05 13:00:14;;;;;;;;;;;;;;;17.44;43.02;100725.59;102271;1326;60150;-84